Time;durP1;ratioP1;P1;durP2;ratioP2;P2;SDS_P1;SDS_P2;PMS_P1;PMS_P2;Temp;Humidity;BMP_temperature;BMP_pressure;BME280_temperature;BME280_humidity;BME280_pressure;Samples;Min_cycle;Max_cycle;Signal;HPM_P1;HPM_P2
2023/04/07 00:01:45;;;;;;;30.33;23.25;;;7.00;99.90;;;;;;5018644;28;20060;-66
2023/04/07 00:04:10;;;;;;;28.40;23.35;;;7.00;99.90;;;;;;5019394;28;20446;-65
2023/04/07 00:06:36;;;;;;;27.67;23.00;;;7.00;99.90;;;;;;5024953;28;20061;-65
2023/04/07 00:09:02;;;;;;;23.60;19.85;;;7.00;99.90;;;;;;5018067;28;20045;-65
2023/04/07 00:11:28;;;;;;;29.25;22.58;;;7.10;99.90;;;;;;4995329;28;20040;-65
2023/04/07 00:13:54;;;;;;;26.17;21.77;;;7.10;99.90;;;;;;5027889;28;20029;-66
2023/04/07 00:16:19;;;;;;;28.80;22.58;;;7.10;99.90;;;;;;5019367;28;20511;-64
2023/04/07 00:18:45;;;;;;;29.10;22.02;;;7.10;99.90;;;;;;5011347;28;20331;-64
2023/04/07 00:21:11;;;;;;;24.35;21.15;;;7.00;99.90;;;;;;5020067;28;20214;-65
2023/04/07 00:23:36;;;;;;;22.77;19.60;;;7.10;99.90;;;;;;5030828;28;20041;-65
2023/04/07 00:26:02;;;;;;;23.73;20.52;;;7.10;99.90;;;;;;5008991;28;20121;-65
2023/04/07 00:28:28;;;;;;;25.98;20.50;;;7.10;99.90;;;;;;5027290;28;20120;-65
2023/04/07 00:30:54;;;;;;;26.33;20.75;;;7.10;99.90;;;;;;5022372;28;20470;-67
2023/04/07 00:33:19;;;;;;;24.63;20.73;;;7.10;99.90;;;;;;5018255;28;20522;-65
2023/04/07 00:35:45;;;;;;;25.98;22.10;;;7.10;99.90;;;;;;5020320;28;20087;-65
2023/04/07 00:38:11;;;;;;;26.65;21.85;;;7.10;99.90;;;;;;5020463;28;20610;-65
2023/04/07 00:40:37;;;;;;;26.35;21.25;;;7.10;99.90;;;;;;5016686;28;20045;-65
2023/04/07 00:43:03;;;;;;;23.75;21.23;;;7.10;99.90;;;;;;5020091;28;20091;-66
2023/04/07 00:45:29;;;;;;;25.35;22.23;;;7.10;99.90;;;;;;5019184;28;20521;-65
2023/04/07 00:47:57;;;;;;;24.27;20.80;;;7.10;99.90;;;;;;5031369;28;20051;-64
2023/04/07 00:50:22;;;;;;;24.02;19.67;;;7.00;99.90;;;;;;5019994;28;20051;-65
2023/04/07 00:52:48;;;;;;;23.25;20.25;;;7.10;99.90;;;;;;5019882;28;20183;-65
2023/04/07 00:55:14;;;;;;;25.92;20.25;;;7.10;99.90;;;;;;5019180;28;20053;-65
2023/04/07 00:57:40;;;;;;;24.52;19.65;;;7.10;99.90;;;;;;5022561;28;20045;-66
2023/04/07 01:00:07;;;;;;;24.55;19.55;;;7.20;99.90;;;;;;5028020;28;20098;-64
2023/04/07 01:02:40;;;;;;;21.98;18.88;;;7.20;99.90;;;;;;5017622;28;20033;-65
2023/04/07 01:05:24;;;;;;;21.17;18.80;;;7.10;99.90;;;;;;5017474;28;20044;-64
2023/04/07 01:08:01;;;;;;;22.60;19.35;;;7.10;99.90;;;;;;5030878;28;20047;-64
2023/04/07 01:10:45;;;;;;;22.30;19.13;;;7.20;99.90;;;;;;5017868;28;20303;-66
2023/04/07 01:13:11;;;;;;;;;;;7.20;99.90;;;;;;5019089;28;20091;-64
2023/04/07 01:15:38;;;;;;;21.48;18.65;;;7.10;99.90;;;;;;5018078;28;19976;-65
2023/04/07 01:18:16;;;;;;;22.60;18.48;;;7.10;99.90;;;;;;5017992;28;20527;-64
2023/04/07 01:20:44;;;;;;;23.02;18.63;;;7.10;99.90;;;;;;5019136;28;20052;-65
2023/04/07 01:23:21;;;;;;;23.75;19.90;;;7.00;99.90;;;;;;5017969;28;20253;-64
2023/04/07 01:26:06;;;;;;;21.70;18.70;;;7.00;99.90;;;;;;5035818;28;20189;-64
2023/04/07 01:29:05;;;;;;;24.10;19.35;;;7.10;99.90;;;;;;5012430;28;20135;-64
2023/04/07 01:31:32;;;;;;;18.60;16.48;;;7.10;99.90;;;;;;5015714;28;20060;-64
2023/04/07 01:34:00;;;;;;;21.40;18.67;;;7.10;99.90;;;;;;4997534;28;20045;-64
2023/04/07 01:36:27;;;;;;;22.33;18.67;;;7.10;99.90;;;;;;5016958;28;20083;-64
2023/04/07 01:38:54;;;;;;;20.10;18.00;;;7.00;99.90;;;;;;5018318;28;20048;-64
2023/04/07 01:41:22;;;;;;;21.23;18.98;;;7.00;99.90;;;;;;5017093;28;20053;-65
2023/04/07 01:43:48;;;;;;;21.75;18.33;;;7.00;99.90;;;;;;5017747;28;20049;-65
2023/04/07 01:46:14;;;;;;;21.83;19.52;;;7.10;99.90;;;;;;5022173;28;20105;-65
2023/04/07 01:48:41;;;;;;;20.92;17.40;;;7.00;99.90;;;;;;5016225;28;20584;-64
2023/04/07 01:51:10;;;;;;;21.55;18.40;;;7.00;99.90;;;;;;5016640;28;20044;-64
2023/04/07 01:53:37;;;;;;;20.55;18.38;;;7.00;99.90;;;;;;5021483;28;20041;-65
2023/04/07 01:56:04;;;;;;;21.42;18.55;;;7.00;99.90;;;;;;5017285;28;20495;-64
2023/04/07 01:58:30;;;;;;;20.48;18.08;;;7.00;99.90;;;;;;5006827;28;20037;-64
2023/04/07 02:00:56;;;;;;;23.58;19.33;;;7.10;99.90;;;;;;4981400;28;20053;-66
2023/04/07 02:03:30;;;;;;;24.15;20.10;;;7.00;99.90;;;;;;5029348;28;20036;-64
2023/04/07 02:06:03;;;;;;;20.52;17.90;;;7.10;99.90;;;;;;5022352;28;20131;-64
2023/04/07 02:08:31;;;;;;;21.98;19.67;;;7.00;99.90;;;;;;5018642;28;20450;-65
2023/04/07 02:10:58;;;;;;;22.50;20.23;;;7.00;99.90;;;;;;5011543;28;20192;-65
2023/04/07 02:13:25;;;;;;;24.40;21.90;;;7.10;99.90;;;;;;5001897;28;20621;-65
2023/04/07 02:15:53;;;;;;;22.70;20.30;;;7.10;99.90;;;;;;5028509;28;20418;-66
2023/04/07 02:18:19;;;;;;;25.90;22.90;;;7.20;99.90;;;;;;5017313;28;20140;-65
2023/04/07 02:20:47;;;;;;;26.15;22.25;;;7.10;99.90;;;;;;5016270;28;20045;-64
2023/04/07 02:23:12;;;;;;;23.60;21.10;;;7.20;99.90;;;;;;5036135;28;20220;-65
2023/04/07 02:25:38;;;;;;;24.30;21.80;;;7.10;99.90;;;;;;5036780;28;20106;-65
2023/04/07 02:28:05;;;;;;;22.95;19.48;;;7.10;99.90;;;;;;5012952;28;20044;-65
2023/04/07 02:30:32;;;;;;;21.60;19.38;;;7.10;99.90;;;;;;5020323;28;20046;-65
2023/04/07 02:32:57;;;;;;;22.52;19.80;;;7.10;99.90;;;;;;5019050;28;20037;-65
2023/04/07 02:35:23;;;;;;;22.17;19.80;;;7.10;99.90;;;;;;5011985;28;20341;-64
2023/04/07 02:37:50;;;;;;;25.23;21.92;;;7.20;99.90;;;;;;5036245;28;20536;-64
2023/04/07 02:40:15;;;;;;;25.60;22.88;;;7.20;99.90;;;;;;5010966;28;20057;-63
2023/04/07 02:42:42;;;;;;;27.50;24.33;;;7.20;99.90;;;;;;5019425;28;20037;-64
2023/04/07 02:45:09;;;;;;;25.30;22.60;;;7.10;99.90;;;;;;5018669;28;20044;-64
2023/04/07 02:47:35;;;;;;;26.73;23.65;;;7.20;99.90;;;;;;5019911;28;20523;-66
2023/04/07 02:50:02;;;;;;;29.80;25.00;;;7.20;99.90;;;;;;5020136;28;20040;-65
2023/04/07 02:52:28;;;;;;;28.75;25.60;;;7.10;99.90;;;;;;5019948;28;20045;-64
2023/04/07 02:54:53;;;;;;;27.63;24.58;;;7.10;99.90;;;;;;5014909;28;20170;-65
2023/04/07 02:57:19;;;;;;;27.13;24.25;;;7.10;99.90;;;;;;5011025;28;20033;-65
2023/04/07 02:59:45;;;;;;;28.63;25.55;;;7.10;99.90;;;;;;5020082;28;20681;-65
2023/04/07 03:02:11;;;;;;;28.05;24.52;;;7.10;99.90;;;;;;5024983;28;20091;-66
2023/04/07 03:04:36;;;;;;;25.55;22.67;;;7.10;99.90;;;;;;5018673;28;20116;-65
2023/04/07 03:07:02;;;;;;;24.02;20.20;;;7.10;99.90;;;;;;5019496;28;20053;-65
2023/04/07 03:09:28;;;;;;;23.98;19.77;;;7.20;99.90;;;;;;5024905;28;20048;-64
2023/04/07 03:11:54;;;;;;;23.35;20.05;;;7.20;99.90;;;;;;5019176;28;20165;-65
2023/04/07 03:14:20;;;;;;;24.52;21.65;;;7.20;99.90;;;;;;5014928;28;20756;-66
2023/04/07 03:16:46;;;;;;;22.67;20.27;;;7.20;99.90;;;;;;5001213;28;20049;-65
2023/04/07 03:19:12;;;;;;;23.38;19.42;;;7.30;99.90;;;;;;5022310;28;20509;-65
2023/04/07 03:21:38;;;;;;;24.08;21.15;;;7.20;99.90;;;;;;5016078;28;20109;-64
2023/04/07 03:24:05;;;;;;;21.17;18.75;;;7.20;99.90;;;;;;5005376;28;20317;-65
2023/04/07 03:26:30;;;;;;;22.80;18.17;;;7.30;99.90;;;;;;5018593;28;20041;-65
2023/04/07 03:28:56;;;;;;;20.83;18.55;;;7.30;99.90;;;;;;5039354;28;20229;-65
2023/04/07 03:31:22;;;;;;;22.10;18.85;;;7.30;99.90;;;;;;5018598;28;20380;-67
2023/04/07 03:33:49;;;;;;;23.55;20.42;;;7.30;99.90;;;;;;5040143;28;20635;-66
2023/04/07 03:36:16;;;;;;;21.63;19.33;;;7.30;99.90;;;;;;5016900;28;20072;-67
2023/04/07 03:38:41;;;;;;;22.80;20.02;;;7.20;99.90;;;;;;5020895;28;20154;-67
2023/04/07 03:41:07;;;;;;;22.65;19.55;;;7.20;99.90;;;;;;5029576;28;20049;-66
2023/04/07 03:43:33;;;;;;;23.80;20.90;;;7.20;99.90;;;;;;4990284;28;20385;-67
2023/04/07 03:45:59;;;;;;;21.42;19.13;;;7.30;99.90;;;;;;5013971;28;20048;-67
2023/04/07 03:48:25;;;;;;;22.58;19.83;;;7.30;99.90;;;;;;5013161;28;20205;-67
2023/04/07 03:50:50;;;;;;;21.38;19.05;;;7.30;99.90;;;;;;5023411;28;20044;-67
2023/04/07 03:53:18;;;;;;;25.60;21.17;;;7.30;99.90;;;;;;5012383;28;20051;-67
2023/04/07 03:55:44;;;;;;;23.83;21.23;;;7.30;99.90;;;;;;5017776;28;20294;-67
2023/04/07 03:58:10;;;;;;;24.20;20.52;;;7.20;99.90;;;;;;5017735;28;20293;-67
2023/04/07 04:00:36;;;;;;;22.98;19.98;;;7.30;99.90;;;;;;5017431;28;20052;-67
2023/04/07 04:03:02;;;;;;;22.95;19.38;;;7.20;99.90;;;;;;5015977;28;20041;-67
2023/04/07 04:05:28;;;;;;;23.98;19.00;;;7.30;99.90;;;;;;5019613;28;20763;-67
2023/04/07 04:07:53;;;;;;;24.60;20.50;;;7.30;99.90;;;;;;5018977;28;20353;-66
2023/04/07 04:10:19;;;;;;;21.63;18.85;;;7.30;99.90;;;;;;5020785;28;20380;-66
2023/04/07 04:12:47;;;;;;;22.33;19.15;;;7.30;99.90;;;;;;5045647;28;21134;-66
2023/04/07 04:15:13;;;;;;;21.58;16.52;;;7.30;99.90;;;;;;5014881;28;20519;-66
2023/04/07 04:17:40;;;;;;;25.23;20.40;;;7.30;99.90;;;;;;5026970;28;20045;-65
2023/04/07 04:20:06;;;;;;;20.10;15.20;;;7.20;99.90;;;;;;5007283;28;20070;-66
2023/04/07 04:22:32;;;;;;;21.42;17.52;;;7.30;99.90;;;;;;5012940;28;20036;-67
2023/04/07 04:24:59;;;;;;;21.77;18.98;;;7.20;99.90;;;;;;5017144;28;20040;-66
2023/04/07 04:27:24;;;;;;;22.45;17.15;;;7.20;99.90;;;;;;5014900;28;20036;-66
2023/04/07 04:29:50;;;;;;;24.48;20.45;;;7.30;99.90;;;;;;5015108;28;20041;-67
2023/04/07 04:32:16;;;;;;;20.80;18.08;;;7.20;99.90;;;;;;5011905;28;20041;-67
2023/04/07 04:34:42;;;;;;;20.80;17.25;;;7.20;99.90;;;;;;5015664;28;20060;-66
2023/04/07 04:37:08;;;;;;;23.17;17.00;;;7.20;99.90;;;;;;5017454;28;20041;-66
2023/04/07 04:39:35;;;;;;;19.70;14.32;;;7.20;99.90;;;;;;5029006;28;20041;-66
2023/04/07 04:42:00;;;;;;;25.55;21.80;;;7.30;99.90;;;;;;5029595;28;20154;-65
2023/04/07 04:44:28;;;;;;;21.88;15.55;;;7.20;99.90;;;;;;5021965;28;20127;-67
2023/04/07 04:46:53;;;;;;;21.90;16.67;;;7.20;99.90;;;;;;5019276;28;20044;-66
2023/04/07 04:49:19;;;;;;;21.77;16.08;;;7.20;99.90;;;;;;5014974;28;20049;-66
2023/04/07 04:51:46;;;;;;;22.92;17.70;;;7.30;99.90;;;;;;5014644;28;20044;-66
2023/04/07 04:54:11;;;;;;;23.92;16.65;;;7.30;99.90;;;;;;5006983;28;20049;-66
2023/04/07 04:56:37;;;;;;;20.00;15.35;;;7.20;99.90;;;;;;5018290;28;22023;-66
2023/04/07 04:59:04;;;;;;;21.80;15.82;;;7.20;99.90;;;;;;5029271;28;20057;-66
2023/04/07 05:01:30;;;;;;;19.05;15.80;;;7.30;99.90;;;;;;5028693;28;20049;-66
2023/04/07 05:03:55;;;;;;;20.65;14.43;;;7.30;99.90;;;;;;5016130;28;20127;-66
2023/04/07 05:06:21;;;;;;;21.17;17.42;;;7.30;99.90;;;;;;5008684;28;20050;-67
2023/04/07 05:08:47;;;;;;;21.08;17.23;;;7.20;99.90;;;;;;5015757;28;20394;-67
2023/04/07 05:11:13;;;;;;;20.13;16.38;;;7.30;99.90;;;;;;5014406;28;20348;-67
2023/04/07 05:13:39;;;;;;;21.90;16.23;;;7.20;99.90;;;;;;5016687;28;20080;-66
2023/04/07 05:16:05;;;;;;;23.42;18.20;;;7.30;99.90;;;;;;5016555;28;20062;-67
2023/04/07 05:18:31;;;;;;;21.65;16.42;;;7.20;99.90;;;;;;5009417;28;20210;-67
2023/04/07 05:20:57;;;;;;;22.65;15.88;;;7.20;99.90;;;;;;5009956;28;20051;-67
2023/04/07 05:23:22;;;;;;;21.00;15.63;;;7.20;99.90;;;;;;5013756;28;20041;-67
2023/04/07 05:25:48;;;;;;;23.20;17.88;;;7.30;99.90;;;;;;4998450;28;20047;-66
2023/04/07 05:28:14;;;;;;;25.08;18.55;;;7.10;99.90;;;;;;5011360;28;20036;-68
2023/04/07 05:30:40;;;;;;;24.85;19.90;;;7.10;99.90;;;;;;5010614;28;20386;-66
2023/04/07 05:33:05;;;;;;;23.73;18.27;;;7.10;99.90;;;;;;5015314;28;20704;-66
2023/04/07 05:35:31;;;;;;;25.77;20.83;;;7.10;99.90;;;;;;5028193;28;20038;-66
2023/04/07 05:37:57;;;;;;;25.60;20.73;;;7.10;99.90;;;;;;5027520;28;20110;-64
2023/04/07 05:40:23;;;;;;;24.15;18.27;;;7.10;99.90;;;;;;5018075;28;20241;-64
2023/04/07 05:42:49;;;;;;;20.48;15.65;;;7.10;99.90;;;;;;5034942;28;20045;-64
2023/04/07 05:45:14;;;;;;;24.10;21.05;;;7.20;99.90;;;;;;5016061;28;20164;-64
2023/04/07 05:47:41;;;;;;;26.17;21.13;;;7.30;99.90;;;;;;5018644;28;20045;-64
2023/04/07 05:50:07;;;;;;;31.48;23.33;;;7.40;99.90;;;;;;5019215;28;20435;-65
2023/04/07 05:52:33;;;;;;;23.38;19.00;;;7.30;99.90;;;;;;5016043;28;20451;-65
2023/04/07 05:54:59;;;;;;;26.58;21.77;;;7.30;99.90;;;;;;5015020;28;20080;-65
2023/04/07 05:57:26;;;;;;;27.90;22.30;;;7.40;99.90;;;;;;5028247;28;20069;-64
2023/04/07 05:59:52;;;;;;;17.02;13.25;;;7.30;99.90;;;;;;5038155;28;20123;-63
2023/04/07 06:02:18;;;;;;;26.27;21.23;;;7.40;99.90;;;;;;5021519;28;20299;-65
2023/04/07 06:04:44;;;;;;;24.88;17.88;;;7.40;99.90;;;;;;5015165;28;20498;-65
2023/04/07 06:07:10;;;;;;;23.33;17.30;;;7.50;99.90;;;;;;5018659;28;20136;-64
2023/04/07 06:09:35;;;;;;;29.70;24.20;;;7.50;99.90;;;;;;5017316;28;20068;-65
2023/04/07 06:12:03;;;;;;;22.25;16.20;;;7.50;99.90;;;;;;4999486;28;20045;-64
2023/04/07 06:14:29;;;;;;;23.48;19.60;;;7.60;99.90;;;;;;5014839;28;20075;-64
2023/04/07 06:16:55;;;;;;;26.98;22.27;;;7.40;99.90;;;;;;5018732;28;20132;-65
2023/04/07 06:19:21;;;;;;;31.50;25.48;;;7.40;99.90;;;;;;5025668;28;20049;-65
2023/04/07 06:21:47;;;;;;;32.50;25.13;;;7.40;99.90;;;;;;5020669;28;20471;-66
2023/04/07 06:24:12;;;;;;;31.65;22.98;;;7.50;99.90;;;;;;5032052;28;20091;-65
2023/04/07 06:26:39;;;;;;;32.80;27.73;;;7.40;99.90;;;;;;5020119;28;20092;-63
2023/04/07 06:29:05;;;;;;;32.25;24.38;;;7.50;99.90;;;;;;5024188;28;20124;-65
2023/04/07 06:31:31;;;;;;;35.08;28.70;;;7.50;99.90;;;;;;5014245;28;20408;-66
2023/04/07 06:33:57;;;;;;;34.53;26.40;;;7.40;99.90;;;;;;5021512;28;20041;-65
2023/04/07 06:36:22;;;;;;;36.65;27.63;;;7.40;99.90;;;;;;5032600;28;20573;-64
2023/04/07 06:38:49;;;;;;;35.05;28.50;;;7.50;99.90;;;;;;5026286;28;20047;-64
2023/04/07 06:41:15;;;;;;;32.60;26.98;;;7.30;99.90;;;;;;5024561;28;20048;-64
2023/04/07 06:43:42;;;;;;;36.72;29.23;;;7.50;99.90;;;;;;5001673;28;20041;-64
2023/04/07 06:46:08;;;;;;;34.45;27.83;;;7.50;99.90;;;;;;5020522;28;20045;-64
2023/04/07 06:48:34;;;;;;;36.05;29.52;;;7.40;99.90;;;;;;5014809;28;20037;-64
2023/04/07 06:50:59;;;;;;;38.05;29.77;;;7.40;99.90;;;;;;5029130;28;20045;-65
2023/04/07 06:53:25;;;;;;;35.88;29.38;;;7.30;99.90;;;;;;5014667;28;20033;-64
2023/04/07 06:55:51;;;;;;;34.25;27.63;;;7.50;99.90;;;;;;5021615;28;20040;-65
2023/04/07 06:58:16;;;;;;;36.10;27.63;;;7.50;99.90;;;;;;5039292;28;20100;-65
2023/04/07 07:00:42;;;;;;;34.25;28.98;;;7.60;99.90;;;;;;5018561;28;20459;-64
2023/04/07 07:03:08;;;;;;;35.13;26.23;;;7.60;99.90;;;;;;5019747;28;20073;-65
2023/04/07 07:05:34;;;;;;;33.42;26.10;;;7.70;99.90;;;;;;5005348;28;20045;-65
2023/04/07 07:07:59;;;;;;;30.50;25.95;;;7.70;99.90;;;;;;5016647;28;20091;-65
2023/04/07 07:10:25;;;;;;;31.90;26.35;;;7.70;99.90;;;;;;5019829;28;20560;-66
2023/04/07 07:12:51;;;;;;;30.58;24.60;;;7.80;99.90;;;;;;5021897;28;20033;-65
2023/04/07 07:15:17;;;;;;;27.17;21.65;;;7.90;99.90;;;;;;5016703;28;20107;-65
2023/04/07 07:17:43;;;;;;;24.88;22.13;;;7.80;1.00;;;;;;5023970;28;20033;-66
2023/04/07 07:20:09;;;;;;;27.77;21.55;;;7.70;1.00;;;;;;5024702;28;20045;-65
2023/04/07 07:22:35;;;;;;;24.58;21.65;;;7.70;1.00;;;;;;5007072;28;20052;-65
2023/04/07 07:25:01;;;;;;;23.80;17.33;;;7.70;1.00;;;;;;5034116;28;20107;-64
2023/04/07 07:27:27;;;;;;;21.85;17.08;;;7.80;1.00;;;;;;5018195;28;20404;-65
2023/04/07 07:29:53;;;;;;;22.50;19.33;;;7.70;99.90;;;;;;5018860;28;20085;-66
2023/04/07 07:32:18;;;;;;;21.77;18.45;;;7.70;99.90;;;;;;5017071;28;20041;-65
2023/04/07 07:34:44;;;;;;;22.20;17.38;;;7.70;99.90;;;;;;5019070;28;20172;-64
2023/04/07 07:37:11;;;;;;;23.77;20.17;;;7.80;99.90;;;;;;5017901;28;20155;-64
2023/04/07 07:39:37;;;;;;;23.98;19.60;;;7.80;99.90;;;;;;5012161;28;20444;-65
2023/04/07 07:42:02;;;;;;;23.77;19.58;;;8.00;99.90;;;;;;5020745;28;20616;-65
2023/04/07 07:44:28;;;;;;;22.80;20.02;;;8.10;99.90;;;;;;5015687;28;20522;-65
2023/04/07 07:46:54;;;;;;;24.75;18.98;;;8.40;99.90;;;;;;5014409;28;20068;-65
2023/04/07 07:49:20;;;;;;;22.13;19.27;;;8.50;99.90;;;;;;5028993;28;20041;-66
2023/04/07 07:51:46;;;;;;;22.60;19.25;;;8.60;99.90;;;;;;5016105;28;20080;-65
2023/04/07 07:54:12;;;;;;;21.10;18.75;;;8.80;99.90;;;;;;5018796;28;20133;-65
2023/04/07 07:56:37;;;;;;;22.88;18.52;;;8.80;99.90;;;;;;5027893;28;20040;-64
2023/04/07 07:59:05;;;;;;;22.10;18.10;;;8.90;99.90;;;;;;5019051;28;20034;-66
2023/04/07 08:01:31;;;;;;;18.98;16.27;;;8.90;99.90;;;;;;5017783;28;20040;-66
2023/04/07 08:03:57;;;;;;;18.38;15.80;;;8.90;99.90;;;;;;5016017;28;21379;-66
2023/04/07 08:06:24;;;;;;;18.38;15.88;;;8.80;99.90;;;;;;4992615;28;20115;-65
2023/04/07 08:08:50;;;;;;;20.02;17.63;;;8.80;99.90;;;;;;5013864;28;20149;-65
2023/04/07 08:11:15;;;;;;;17.67;15.57;;;8.90;99.90;;;;;;5019395;28;20592;-64
2023/04/07 08:13:44;;;;;;;19.30;15.80;;;9.00;99.90;;;;;;5019952;28;20033;-65
2023/04/07 08:16:10;;;;;;;18.30;16.05;;;9.10;99.90;;;;;;5020334;28;20064;-65
2023/04/07 08:18:36;;;;;;;18.85;14.93;;;9.30;99.90;;;;;;5003541;28;20045;-65
2023/04/07 08:21:04;;;;;;;19.15;15.40;;;9.60;99.90;;;;;;5027175;28;20065;-65
2023/04/07 08:23:30;;;;;;;17.85;13.27;;;9.70;99.90;;;;;;5018235;28;20053;-65
2023/04/07 08:25:56;;;;;;;17.77;14.20;;;9.70;99.90;;;;;;5044982;28;20135;-65
2023/04/07 08:28:23;;;;;;;14.65;12.35;;;9.60;99.90;;;;;;5015964;28;20037;-65
2023/04/07 08:30:49;;;;;;;15.18;13.57;;;9.70;99.90;;;;;;5034818;28;20053;-65
2023/04/07 08:33:14;;;;;;;15.05;12.57;;;9.80;99.90;;;;;;5015940;28;20087;-65
2023/04/07 08:35:40;;;;;;;13.30;11.75;;;9.90;99.90;;;;;;5008729;28;20041;-65
2023/04/07 08:38:07;;;;;;;13.25;11.85;;;10.00;99.90;;;;;;5018443;28;20291;-66
2023/04/07 08:40:33;;;;;;;14.98;12.90;;;10.20;99.90;;;;;;5014511;28;20081;-65
2023/04/07 08:43:00;;;;;;;10.13;8.75;;;10.70;99.90;;;;;;5017077;28;20578;-65
2023/04/07 08:45:26;;;;;;;14.48;12.43;;;10.80;99.90;;;;;;5016898;28;20074;-67
2023/04/07 08:48:01;;;;;;;14.15;12.65;;;10.80;99.90;;;;;;5002536;28;20048;-65
2023/04/07 08:50:27;;;;;;;12.35;10.30;;;10.70;99.90;;;;;;5027883;28;20445;-65
2023/04/07 08:52:54;;;;;;;12.30;11.10;;;10.90;99.90;;;;;;4999002;28;20328;-65
2023/04/07 08:55:20;;;;;;;12.05;9.95;;;11.00;99.90;;;;;;5016990;28;20034;-66
2023/04/07 08:57:46;;;;;;;13.60;12.32;;;10.90;99.90;;;;;;5027514;28;20840;-64
2023/04/07 09:00:13;;;;;;;14.20;12.73;;;10.60;99.90;;;;;;5009755;28;20049;-65
2023/04/07 09:02:43;;;;;;;13.25;11.88;;;10.50;99.90;;;;;;5026324;28;20348;-65
2023/04/07 09:05:09;;;;;;;13.52;12.13;;;10.70;99.90;;;;;;5037688;28;20079;-65
2023/04/07 09:07:36;;;;;;;13.20;11.65;;;10.70;99.90;;;;;;5025649;28;20094;-65
2023/04/07 09:10:03;;;;;;;14.18;12.05;;;10.80;99.90;;;;;;5017170;28;20053;-65
2023/04/07 09:12:30;;;;;;;11.43;10.23;;;11.00;99.90;;;;;;5013148;28;20076;-65
2023/04/07 09:14:56;;;;;;;12.60;10.55;;;11.20;99.90;;;;;;4994830;28;20440;-66
2023/04/07 09:17:25;;;;;;;12.70;11.43;;;11.50;99.90;;;;;;5028221;28;20041;-66
2023/04/07 09:19:54;;;;;;;11.50;10.30;;;11.60;99.90;;;;;;4995471;28;20482;-66
2023/04/07 09:22:46;;;;;;;13.25;11.85;;;11.90;99.90;;;;;;5012051;28;20041;-64
2023/04/07 09:25:24;;;;;;;12.15;10.93;;;12.10;99.90;;;;;;5030298;28;20109;-66
2023/04/07 09:28:02;;;;;;;13.35;11.13;;;12.40;99.90;;;;;;5032871;28;20041;-66
2023/04/07 09:30:29;;;;;;;12.80;11.50;;;12.50;99.90;;;;;;5031295;28;20275;-66
2023/04/07 09:32:55;;;;;;;12.25;11.00;;;12.70;99.90;;;;;;5031834;28;20116;-65
2023/04/07 09:35:22;;;;;;;10.75;9.73;;;12.90;99.90;;;;;;5015137;28;20055;-65
2023/04/07 09:38:08;;;;;;;11.57;10.48;;;13.00;99.90;;;;;;5033010;28;20556;-65
2023/04/07 09:40:36;;;;;;;10.70;9.70;;;13.40;99.90;;;;;;5031431;28;20045;-65
2023/04/07 09:43:04;;;;;;;11.38;10.27;;;13.60;99.90;;;;;;5031662;28;20071;-66
2023/04/07 09:45:31;;;;;;;8.73;7.93;;;13.80;99.00;;;;;;4996322;28;20064;-65
2023/04/07 09:47:57;;;;;;;8.57;7.88;;;13.80;59.40;;;;;;5012070;28;20045;-67
2023/04/07 09:50:44;;;;;;;8.00;7.25;;;13.70;1.00;;;;;;5013661;28;20494;-65
2023/04/07 09:53:10;;;;;;;7.93;7.13;;;13.60;1.00;;;;;;5011970;28;20522;-65
2023/04/07 09:55:38;;;;;;;7.07;6.47;;;13.50;1.00;;;;;;4995702;28;20057;-65
2023/04/07 09:58:05;;;;;;;7.65;6.10;;;13.50;1.00;;;;;;5031107;28;20045;-65
2023/04/07 10:00:31;;;;;;;7.32;6.63;;;13.30;99.90;;;;;;5015741;28;20499;-65
2023/04/07 10:02:57;;;;;;;8.05;7.25;;;13.30;99.90;;;;;;5012471;28;20084;-66
2023/04/07 10:05:24;;;;;;;9.20;8.30;;;13.30;1.00;;;;;;5012622;28;20045;-66
2023/04/07 10:07:50;;;;;;;7.88;6.97;;;13.50;1.00;;;;;;5015046;28;20048;-65
2023/04/07 10:10:16;;;;;;;7.38;6.72;;;13.50;1.00;;;;;;5025224;28;20052;-65
2023/04/07 10:12:43;;;;;;;8.60;7.80;;;13.50;99.90;;;;;;5014362;28;20300;-66
2023/04/07 10:15:14;;;;;;;8.35;7.55;;;13.60;1.00;;;;;;5014262;28;20084;-66
2023/04/07 10:17:45;;;;;;;9.13;8.23;;;14.20;1.00;;;;;;5015577;28;20037;-64
2023/04/07 10:20:13;;;;;;;8.68;7.88;;;14.30;1.00;;;;;;5025869;28;20354;-66
2023/04/07 10:22:41;;;;;;;8.45;7.65;;;14.80;1.00;;;;;;5014678;28;20049;-65
2023/04/07 10:25:13;;;;;;;8.93;8.02;;;14.70;99.90;;;;;;5016144;28;20068;-66
2023/04/07 10:27:57;;;;;;;7.93;7.22;;;15.10;99.90;;;;;;5027603;28;20041;-65
2023/04/07 10:30:31;;;;;;;9.10;8.25;;;15.30;99.90;;;;;;5016656;28;20140;-66
2023/04/07 10:32:57;;;;;;;8.40;7.32;;;15.20;99.90;;;;;;4999226;28;20041;-65
2023/04/07 10:35:24;;;;;;;9.43;8.63;;;15.30;99.90;;;;;;5027911;28;20124;-65
2023/04/07 10:38:10;;;;;;;9.90;8.23;;;15.60;99.90;;;;;;5015783;28;20096;-66
2023/04/07 10:40:37;;;;;;;9.35;8.45;;;15.80;99.90;;;;;;5015785;28;20132;-66
2023/04/07 10:43:04;;;;;;;9.27;8.38;;;15.90;99.90;;;;;;5001034;28;20103;-66
2023/04/07 10:45:45;;;;;;;9.13;8.32;;;15.90;99.90;;;;;;5016585;28;20132;-66
2023/04/07 10:48:13;;;;;;;9.52;8.52;;;15.90;99.90;;;;;;5016260;28;20042;-66
2023/04/07 10:50:39;;;;;;;9.52;8.48;;;16.30;99.90;;;;;;5029004;28;20206;-66
2023/04/07 10:53:13;;;;;;;9.82;8.77;;;16.10;99.90;;;;;;5016127;28;20519;-66
2023/04/07 10:55:43;;;;;;;9.52;8.55;;;16.10;99.90;;;;;;5021628;28;20109;-65
2023/04/07 10:58:22;;;;;;;9.38;8.40;;;16.40;99.90;;;;;;5034771;28;20114;-65
2023/04/07 11:01:14;;;;;;;9.70;8.70;;;16.60;99.90;;;;;;5017949;28;20037;-66
2023/04/07 11:03:50;;;;;;;9.15;8.35;;;16.40;99.90;;;;;;5015780;28;20063;-65
2023/04/07 11:06:16;;;;;;;9.00;8.10;;;16.30;99.90;;;;;;5022191;28;20701;-66
2023/04/07 11:08:44;;;;;;;9.02;8.20;;;15.90;99.90;;;;;;5019021;28;20043;-66
2023/04/07 11:11:11;;;;;;;8.95;8.02;;;16.10;99.90;;;;;;5029957;28;20072;-67
2023/04/07 11:13:45;;;;;;;8.95;8.05;;;15.80;99.90;;;;;;5017527;28;20335;-66
2023/04/07 11:16:11;;;;;;;9.80;7.97;;;16.00;99.90;;;;;;5026257;28;20483;-65
2023/04/07 11:18:38;;;;;;;7.80;6.93;;;16.10;99.90;;;;;;5016733;28;20053;-66
2023/04/07 11:21:05;;;;;;;8.52;7.70;;;15.90;99.90;;;;;;5033054;28;20798;-65
2023/04/07 11:23:43;;;;;;;9.30;8.40;;;15.80;99.90;;;;;;5019935;28;20280;-65
2023/04/07 11:26:10;;;;;;;10.30;9.30;;;15.60;99.90;;;;;;4982631;28;20511;-66
2023/04/07 11:28:58;;;;;;;10.02;9.10;;;16.10;99.90;;;;;;5018668;28;20514;-66
2023/04/07 11:31:29;;;;;;;10.13;9.23;;;16.60;99.90;;;;;;5034962;28;20140;-66
2023/04/07 11:34:02;;;;;;;10.30;8.85;;;16.90;99.90;;;;;;5018488;28;20040;-66
2023/04/07 11:36:38;;;;;;;10.38;9.40;;;17.00;99.90;;;;;;5025445;28;20103;-67
2023/04/07 11:39:04;;;;;;;10.30;9.20;;;16.90;99.90;;;;;;5037942;28;20049;-67
2023/04/07 11:41:32;;;;;;;8.60;7.80;;;17.00;99.90;;;;;;5020196;28;20283;-66
2023/04/07 11:44:11;;;;;;;9.30;8.40;;;17.40;99.90;;;;;;5028029;28;20048;-65
2023/04/07 11:46:52;;;;;;;9.48;8.55;;;17.60;99.90;;;;;;5044863;28;20049;-66
2023/04/07 11:49:18;;;;;;;9.50;8.60;;;17.90;99.90;;;;;;5014472;28;20045;-66
2023/04/07 11:51:44;;;;;;;9.63;8.73;;;17.70;99.90;;;;;;4997859;28;20656;-66
2023/04/07 11:54:10;;;;;;;10.07;8.82;;;17.90;99.90;;;;;;5013856;28;20049;-65
2023/04/07 11:56:44;;;;;;;10.30;9.30;;;17.90;99.90;;;;;;5015640;28;20038;-66
2023/04/07 11:59:24;;;;;;;10.25;9.23;;;17.70;99.90;;;;;;5013771;28;20206;-66
2023/04/07 12:01:51;;;;;;;9.95;8.95;;;17.90;99.90;;;;;;5016515;28;20033;-66
2023/04/07 12:04:17;;;;;;;9.82;8.82;;;17.50;99.90;;;;;;5005471;28;20384;-66
2023/04/07 12:06:45;;;;;;;10.48;9.38;;;17.20;99.90;;;;;;5015713;28;20045;-67
2023/04/07 12:09:33;;;;;;;11.85;10.40;;;16.90;99.90;;;;;;5025460;28;20050;-65
2023/04/07 12:11:59;;;;;;;10.70;9.35;;;17.00;99.90;;;;;;5034341;28;20296;-66
2023/04/07 12:14:26;;;;;;;10.93;9.82;;;17.20;99.90;;;;;;5032890;28;20049;-66
2023/04/07 12:16:55;;;;;;;10.95;9.85;;;17.00;99.90;;;;;;5025472;28;20488;-65
2023/04/07 12:19:22;;;;;;;11.60;10.32;;;17.20;99.90;;;;;;5032500;28;20098;-67
2023/04/07 12:21:47;;;;;;;12.00;10.30;;;17.70;99.90;;;;;;5033090;28;20260;-66
2023/04/07 12:24:13;;;;;;;11.63;10.43;;;17.90;99.90;;;;;;5032578;28;20521;-66
2023/04/07 12:26:39;;;;;;;12.90;11.02;;;17.80;99.90;;;;;;5032600;28;20053;-66
2023/04/07 12:29:05;;;;;;;12.40;11.02;;;17.90;99.90;;;;;;5033171;28;20056;-66
2023/04/07 12:31:32;;;;;;;12.88;10.90;;;17.70;99.90;;;;;;5016728;28;20223;-66
2023/04/07 12:33:57;;;;;;;11.63;10.23;;;17.50;99.90;;;;;;5045887;28;20537;-66
2023/04/07 12:36:26;;;;;;;12.27;10.73;;;17.80;99.90;;;;;;4996524;28;20378;-65
2023/04/07 12:38:53;;;;;;;11.77;10.27;;;17.40;99.90;;;;;;4996856;28;20048;-66
2023/04/07 12:41:19;;;;;;;12.10;10.43;;;17.40;99.90;;;;;;5012965;28;20283;-65